createdAt,value
2018-03-19T00:01:31.864Z,82.04
2018-03-19T00:03:59.459Z,81.15
2018-03-19T00:06:26.972Z,81.56
2018-03-19T00:08:54.467Z,81.94
2018-03-19T00:11:21.993Z,81.97
2018-03-19T00:13:49.491Z,81.97
2018-03-19T00:16:17.007Z,80.92
2018-03-19T00:18:44.505Z,81.30
2018-03-19T00:21:12.041Z,81.48
2018-03-19T00:23:39.565Z,81.88
2018-03-19T00:26:07.112Z,81.57
2018-03-19T00:28:34.639Z,81.64
2018-03-19T00:31:02.129Z,81.85
2018-03-19T00:33:29.656Z,82.02
2018-03-19T00:35:57.172Z,82.53
2018-03-19T00:38:24.683Z,82.93
2018-03-19T00:40:52.185Z,82.38
2018-03-19T00:43:19.699Z,82.60
2018-03-19T00:45:47.199Z,83.18
2018-03-19T00:48:14.716Z,83.35
2018-03-19T00:50:42.208Z,83.69
2018-03-19T00:53:09.737Z,83.63
2018-03-19T00:55:37.222Z,83.41
2018-03-19T00:58:04.743Z,82.88
2018-03-19T01:00:32.416Z,82.88
2018-03-19T01:02:59.975Z,82.69
2018-03-19T01:05:27.538Z,83.10
2018-03-19T01:07:55.107Z,83.45
2018-03-19T01:10:22.604Z,82.72
2018-03-19T01:12:50.126Z,82.29
2018-03-19T01:15:17.619Z,82.69
2018-03-19T01:17:45.137Z,81.87
2018-03-19T01:20:12.687Z,82.11
2018-03-19T01:22:40.252Z,82.78
2018-03-19T01:25:07.746Z,82.37
2018-03-19T01:27:35.256Z,82.30
2018-03-19T01:30:02.761Z,82.21
2018-03-19T01:32:30.276Z,82.24
2018-03-19T01:34:57.768Z,82.21
2018-03-19T01:37:28.659Z,81.95
2018-03-19T01:39:56.246Z,82.44
2018-03-19T01:42:23.749Z,82.45
2018-03-19T01:44:52.290Z,82.29
2018-03-19T01:47:19.776Z,81.77
2018-03-19T01:49:47.306Z,82.05
2018-03-19T01:52:15.784Z,82.35
2018-03-19T01:54:43.299Z,82.64
2018-03-19T01:57:10.787Z,83.28
2018-03-19T01:59:38.296Z,82.30
2018-03-19T02:02:05.805Z,82.10
2018-03-19T02:04:33.369Z,81.85
2018-03-19T02:07:00.950Z,81.78
2018-03-19T02:09:32.064Z,82.28
2018-03-19T02:12:04.620Z,81.50
2018-03-19T02:14:32.139Z,81.68
2018-03-19T02:16:59.635Z,82.45
2018-03-19T02:19:28.147Z,82.41
2018-03-19T02:21:55.644Z,82.20
2018-03-19T02:24:23.175Z,82.07
2018-03-19T02:26:50.669Z,82.58
2018-03-19T02:29:18.192Z,82.44
2018-03-19T02:31:45.688Z,83.01
2018-03-19T02:34:13.205Z,82.83
2018-03-19T02:36:40.700Z,82.54
2018-03-19T02:39:08.339Z,82.97
2018-03-19T02:41:35.880Z,82.27
2018-03-19T02:44:03.401Z,82.69
2018-03-19T02:46:31.008Z,82.47
2018-03-19T02:48:58.561Z,82.92
2018-03-19T02:51:26.064Z,83.11
2018-03-19T02:53:53.551Z,83.07
2018-03-19T02:56:21.060Z,82.99
2018-03-19T02:58:48.637Z,82.36
2018-03-19T03:01:16.148Z,82.24
2018-03-19T03:03:43.653Z,82.42
2018-03-19T03:06:11.281Z,82.09
2018-03-19T03:08:38.836Z,81.94
2018-03-19T03:11:06.402Z,81.79
2018-03-19T03:13:33.947Z,82.75
2018-03-19T03:16:01.523Z,83.04
2018-03-19T03:18:29.032Z,82.38
2018-03-19T03:20:56.547Z,82.49
2018-03-19T03:23:24.095Z,82.21
2018-03-19T03:25:51.646Z,82.17
2018-03-19T03:28:19.140Z,82.14
2018-03-19T03:30:46.660Z,82.74
2018-03-19T03:33:14.227Z,82.98
2018-03-19T03:35:41.791Z,82.64
2018-03-19T03:38:09.348Z,83.21
2018-03-19T03:40:36.907Z,82.89
2018-03-19T03:43:04.441Z,82.53
2018-03-19T03:45:31.951Z,81.83
2018-03-19T03:47:59.448Z,81.98
2018-03-19T03:50:26.984Z,81.70
2018-03-19T03:52:54.474Z,82.17
2018-03-19T03:55:21.972Z,82.42
2018-03-19T03:57:49.532Z,81.86
2018-03-19T04:00:17.023Z,82.49
2018-03-19T04:02:44.643Z,82.38
2018-03-19T04:05:12.142Z,82.53
2018-03-19T04:07:39.678Z,82.43
2018-03-19T04:10:07.195Z,82.18
2018-03-19T04:12:34.716Z,82.39
2018-03-19T04:15:02.249Z,82.04
2018-03-19T04:17:29.769Z,82.22
2018-03-19T04:19:57.260Z,81.76
2018-03-19T04:22:24.780Z,81.77
2018-03-19T04:24:52.375Z,82.12
2018-03-19T04:27:19.895Z,82.09
2018-03-19T04:29:47.384Z,82.21
2018-03-19T04:32:14.899Z,82.11
2018-03-19T04:34:42.400Z,82.91
2018-03-19T04:37:09.926Z,82.39
2018-03-19T04:39:37.419Z,82.49
2018-03-19T04:42:04.985Z,82.38
2018-03-19T04:44:32.487Z,82.04
2018-03-19T04:47:00.004Z,82.35
2018-03-19T04:49:27.555Z,82.66
2018-03-19T04:51:55.070Z,82.85
2018-03-19T04:54:22.591Z,83.43
2018-03-19T04:56:50.248Z,83.33
2018-03-19T04:59:17.736Z,83.36
2018-03-19T05:01:45.227Z,83.26
2018-03-19T05:04:12.769Z,83.31
2018-03-19T05:06:40.266Z,83.42
2018-03-19T05:09:07.855Z,83.05
2018-03-19T05:11:35.375Z,83.03
2018-03-19T05:14:02.888Z,83.10
2018-03-19T05:16:30.404Z,83.25
2018-03-19T05:18:57.932Z,84.08
2018-03-19T05:21:25.530Z,84.15
2018-03-19T05:23:53.045Z,83.91
2018-03-19T05:26:20.540Z,83.76
2018-03-19T05:28:48.096Z,83.70
2018-03-19T05:31:15.740Z,83.48
2018-03-19T05:33:43.272Z,83.06
2018-03-19T05:36:10.767Z,83.64
2018-03-19T05:38:38.326Z,83.90
2018-03-19T05:41:05.813Z,83.65
2018-03-19T05:43:33.332Z,83.67
2018-03-19T05:46:00.837Z,83.62
2018-03-19T05:48:28.379Z,84.00
2018-03-19T05:50:55.876Z,83.35
2018-03-19T05:53:23.500Z,83.26
2018-03-19T05:55:50.996Z,83.39
2018-03-19T05:58:18.507Z,83.30
2018-03-19T06:00:46.012Z,83.55
2018-03-19T06:03:13.533Z,83.67
2018-03-19T06:05:41.027Z,82.93
2018-03-19T06:08:08.551Z,82.93
2018-03-19T06:10:36.089Z,83.11
2018-03-19T06:13:03.582Z,83.09
2018-03-19T06:15:31.091Z,83.30
2018-03-19T06:17:58.603Z,83.62
2018-03-19T06:20:26.143Z,82.82
2018-03-19T06:22:53.695Z,82.16
2018-03-19T06:25:21.277Z,82.27
2018-03-19T06:27:48.853Z,82.06
2018-03-19T06:30:16.365Z,82.25
2018-03-19T06:32:43.871Z,81.36
2018-03-19T06:35:11.388Z,81.15
2018-03-19T06:37:38.886Z,81.24
2018-03-19T06:40:06.404Z,81.18
2018-03-19T06:42:33.901Z,81.28
2018-03-19T06:45:01.429Z,81.09
2018-03-19T06:47:28.927Z,80.79
2018-03-19T06:49:56.563Z,81.00
2018-03-19T06:52:24.048Z,81.77
2018-03-19T06:54:51.552Z,81.66
2018-03-19T06:57:19.081Z,81.21
2018-03-19T06:59:46.591Z,80.77
2018-03-19T07:02:14.112Z,80.31
2018-03-19T07:04:41.604Z,80.37
2018-03-19T07:07:09.117Z,79.72
2018-03-19T07:09:36.640Z,79.67
2018-03-19T07:12:04.188Z,79.16
2018-03-19T07:14:31.678Z,79.19
2018-03-19T07:16:59.191Z,78.63
2018-03-19T07:19:26.692Z,77.97
2018-03-19T07:21:54.222Z,77.12
2018-03-19T07:24:21.900Z,76.93
2018-03-19T07:26:49.339Z,76.56
2018-03-19T07:29:16.840Z,77.25
2018-03-19T07:31:44.456Z,76.05
2018-03-19T07:34:11.948Z,75.67
2018-03-19T07:36:39.471Z,75.58
2018-03-19T07:39:07.042Z,75.38
2018-03-19T07:41:34.594Z,74.43
2018-03-19T07:44:02.259Z,73.24
2018-03-19T07:46:29.811Z,73.37
2018-03-19T07:48:57.299Z,72.74
2018-03-19T07:51:30.776Z,71.80
2018-03-19T07:54:00.264Z,72.04
2018-03-19T07:56:28.774Z,72.45
2018-03-19T07:58:56.272Z,72.85
2018-03-19T08:01:23.893Z,72.01
2018-03-19T08:03:51.436Z,73.05
2018-03-19T08:06:18.928Z,72.39
2018-03-19T08:08:46.461Z,71.81
2018-03-19T08:11:13.951Z,72.36
2018-03-19T08:13:41.498Z,72.55
2018-03-19T08:16:09.000Z,72.77
2018-03-19T08:18:42.358Z,72.89
2018-03-19T08:21:09.884Z,73.07
2018-03-19T08:23:37.428Z,70.98
2018-03-19T08:26:04.916Z,70.94
2018-03-19T08:28:32.444Z,71.66
2018-03-19T08:30:59.937Z,71.47
2018-03-19T08:33:27.464Z,70.62
2018-03-19T08:35:54.957Z,67.65
2018-03-19T08:38:22.492Z,68.10
2018-03-19T08:40:49.994Z,68.02
2018-03-19T08:43:17.624Z,67.41
2018-03-19T08:45:45.117Z,68.25
2018-03-19T08:48:12.740Z,66.97
2018-03-19T08:50:40.232Z,66.38
2018-03-19T08:53:07.756Z,67.21
2018-03-19T08:55:35.248Z,66.63
2018-03-19T08:58:02.788Z,67.08
2018-03-19T09:00:30.299Z,68.63
2018-03-19T09:02:57.841Z,68.34
2018-03-19T09:05:25.335Z,70.79
2018-03-19T09:07:52.823Z,69.94
2018-03-19T09:10:20.360Z,70.22
2018-03-19T09:12:48.001Z,70.73
2018-03-19T09:15:15.530Z,69.67
2018-03-19T09:17:43.083Z,70.70
2018-03-19T09:20:10.685Z,71.43
2018-03-19T09:22:38.278Z,69.45
2018-03-19T09:25:05.796Z,70.78
2018-03-19T09:27:33.293Z,69.88
2018-03-19T09:30:01.036Z,68.87
2018-03-19T09:32:28.543Z,67.01
2018-03-19T09:34:56.055Z,65.13
2018-03-19T09:37:23.672Z,65.99
2018-03-19T09:39:51.208Z,63.23
2018-03-19T09:42:18.712Z,60.76
2018-03-19T09:44:46.231Z,61.81
2018-03-19T09:47:13.723Z,61.88
2018-03-19T09:49:41.237Z,62.19
2018-03-19T09:52:08.754Z,62.64
2018-03-19T09:54:36.299Z,63.93
2018-03-19T09:57:04.088Z,63.90
2018-03-19T09:59:31.681Z,64.93
2018-03-19T10:01:59.252Z,64.96
2018-03-19T10:04:26.744Z,64.45
2018-03-19T10:06:54.363Z,64.41
2018-03-19T10:09:21.881Z,63.47
2018-03-19T10:11:49.423Z,62.03
2018-03-19T10:14:16.948Z,59.80
2018-03-19T10:16:44.499Z,61.45
2018-03-19T10:19:11.994Z,61.27
2018-03-19T10:21:39.654Z,61.07
2018-03-19T10:24:07.153Z,61.50
2018-03-19T10:26:34.696Z,61.42
2018-03-19T10:29:02.187Z,61.82
2018-03-19T10:31:29.774Z,62.90
2018-03-19T10:33:57.320Z,63.30
2018-03-19T10:36:24.878Z,64.12
2018-03-19T10:38:52.375Z,65.99
2018-03-19T10:41:19.961Z,68.08
2018-03-19T10:43:47.476Z,68.60
2018-03-19T10:46:15.112Z,69.51
2018-03-19T10:48:42.608Z,70.32
2018-03-19T10:51:10.128Z,73.39
2018-03-19T10:53:37.700Z,73.62
2018-03-19T10:56:05.239Z,74.03
2018-03-19T10:58:32.738Z,74.66
2018-03-19T11:01:05.896Z,74.55
2018-03-19T11:03:33.388Z,74.10
2018-03-19T11:09:05.636Z,75.28
2018-03-19T11:11:33.156Z,74.73
2018-03-19T11:14:00.681Z,74.96
2018-03-19T11:16:28.237Z,74.34
2018-03-19T11:18:55.792Z,75.61
2018-03-19T11:21:23.319Z,74.04
2018-03-19T11:23:50.807Z,73.73
2018-03-19T11:26:18.352Z,74.90
2018-03-19T11:28:45.928Z,74.12
2018-03-19T11:31:13.489Z,74.07
2018-03-19T11:33:41.012Z,73.38
2018-03-19T11:36:08.543Z,74.85
2018-03-19T11:38:36.284Z,74.78
2018-03-19T11:41:03.820Z,76.17
2018-03-19T11:43:31.413Z,75.03
2018-03-19T11:45:58.915Z,75.88
2018-03-19T11:48:26.511Z,75.37
2018-03-19T11:50:54.144Z,75.94
2018-03-19T11:53:21.728Z,76.25
2018-03-19T11:55:49.316Z,75.31
2018-03-19T11:58:16.843Z,77.33
2018-03-19T12:00:44.336Z,77.10
2018-03-19T12:03:11.848Z,76.14
2018-03-19T12:05:39.339Z,76.22
2018-03-19T12:08:06.860Z,75.82
2018-03-19T12:10:34.367Z,76.28
2018-03-19T12:13:01.908Z,76.31
2018-03-19T12:15:30.357Z,75.58
2018-03-19T12:17:57.892Z,76.01
2018-03-19T12:20:25.384Z,74.54
2018-03-19T12:22:52.891Z,74.39
2018-03-19T12:25:20.391Z,74.37
2018-03-19T12:27:47.916Z,74.53
2018-03-19T12:30:15.410Z,73.95
2018-03-19T12:32:42.898Z,74.97
2018-03-19T12:35:10.440Z,72.56
2018-03-19T12:37:37.934Z,73.51
2018-03-19T12:40:05.573Z,73.73
2018-03-19T12:42:33.140Z,73.16
2018-03-19T12:45:00.666Z,72.35
2018-03-19T12:47:28.155Z,73.34
2018-03-19T12:49:55.752Z,72.82
2018-03-19T12:52:23.248Z,73.14
2018-03-19T12:54:50.767Z,74.56
2018-03-19T12:57:18.260Z,73.20
2018-03-19T12:59:45.785Z,73.84
2018-03-19T13:02:13.296Z,72.72
2018-03-19T13:04:40.819Z,72.53
2018-03-19T13:07:08.339Z,72.57
2018-03-19T13:09:35.893Z,71.60
2018-03-19T13:12:03.444Z,71.92
2018-03-19T13:14:30.984Z,72.79
2018-03-19T13:16:58.491Z,71.49
2018-03-19T13:19:26.222Z,71.41
2018-03-19T13:21:53.676Z,73.18
2018-03-19T13:24:21.201Z,72.31
2018-03-19T13:26:48.736Z,72.63
2018-03-19T13:29:16.285Z,72.17
2018-03-19T13:31:43.813Z,71.81
2018-03-19T13:34:11.315Z,72.90
2018-03-19T13:36:38.805Z,72.71
2018-03-19T13:39:06.301Z,73.22
2018-03-19T13:41:33.816Z,72.00
2018-03-19T13:44:01.413Z,72.17
2018-03-19T13:46:28.968Z,70.81
2018-03-19T13:48:56.459Z,71.07
2018-03-19T13:51:24.007Z,72.87
2018-03-19T13:53:51.547Z,70.68
2018-03-19T13:56:19.086Z,70.03
2018-03-19T13:58:46.600Z,70.53
2018-03-19T14:01:14.139Z,71.50
2018-03-19T14:03:41.669Z,72.87
2018-03-19T14:06:09.216Z,73.22
2018-03-19T14:08:36.709Z,73.66
2018-03-19T14:11:04.256Z,74.41
2018-03-19T14:13:31.794Z,74.39
2018-03-19T14:15:59.483Z,73.37
2018-03-19T14:18:27.048Z,75.08
2018-03-19T14:20:54.575Z,73.78
2018-03-19T14:23:22.172Z,73.08
2018-03-19T14:25:49.758Z,71.78
2018-03-19T14:28:17.241Z,72.81
2018-03-19T14:30:44.863Z,73.16
2018-03-19T14:33:12.358Z,72.23
2018-03-19T14:35:39.856Z,71.74
2018-03-19T14:38:07.395Z,72.64
2018-03-19T14:40:34.901Z,72.69
2018-03-19T14:43:02.438Z,70.66
2018-03-19T14:45:30.024Z,71.04
2018-03-19T14:47:57.535Z,71.50
2018-03-19T14:50:25.032Z,70.35
2018-03-19T14:52:52.569Z,70.82
2018-03-19T14:55:20.080Z,71.56
2018-03-19T14:57:47.596Z,71.11
2018-03-19T15:00:15.107Z,72.04
2018-03-19T15:02:42.632Z,71.26
2018-03-19T15:05:10.136Z,71.88
2018-03-19T15:07:37.712Z,70.66
2018-03-19T15:10:05.222Z,71.81
2018-03-19T15:12:32.747Z,72.73
2018-03-19T15:15:00.244Z,73.00
2018-03-19T15:17:27.778Z,72.17
2018-03-19T15:19:56.221Z,73.44
2018-03-19T15:22:23.742Z,73.37
2018-03-19T15:24:51.260Z,74.27
2018-03-19T15:27:18.789Z,73.89
2018-03-19T15:29:46.288Z,73.49
2018-03-19T15:32:13.876Z,73.56
2018-03-19T15:34:41.371Z,73.97
2018-03-19T15:37:08.966Z,74.74
2018-03-19T15:39:36.476Z,73.98
2018-03-19T15:42:03.967Z,74.33
2018-03-19T15:44:31.557Z,73.99
2018-03-19T15:46:59.061Z,73.63
2018-03-19T15:49:26.587Z,74.39
2018-03-19T15:51:54.107Z,74.07
2018-03-19T15:54:21.635Z,73.33
2018-03-19T15:56:49.234Z,73.84
2018-03-19T15:59:16.751Z,73.09
2018-03-19T16:01:44.243Z,73.71
2018-03-19T16:04:11.796Z,74.50
2018-03-19T16:06:39.383Z,75.19
2018-03-19T16:09:07.229Z,75.31
2018-03-19T16:11:34.819Z,75.30
2018-03-19T16:14:02.344Z,75.75
2018-03-19T16:16:29.853Z,75.32
2018-03-19T16:34:46.730Z,76.37
2018-03-19T16:40:50.445Z,76.79
2018-03-19T16:46:14.564Z,79.29
2018-03-19T16:59:30.427Z,79.36
2018-03-19T17:02:21.927Z,79.82
2018-03-19T17:05:20.826Z,80.06
2018-03-19T17:07:57.826Z,79.76
2018-03-19T17:10:32.757Z,80.04
2018-03-19T17:13:10.255Z,80.52
2018-03-19T17:15:46.209Z,80.90
2018-03-19T17:18:18.096Z,80.74
2018-03-19T17:26:19.663Z,80.67
2018-03-19T17:29:06.891Z,81.15
2018-03-19T17:31:53.888Z,81.36
2018-03-19T17:34:25.411Z,81.32
2018-03-19T17:40:08.708Z,81.17
2018-03-19T17:58:22.851Z,81.08
2018-03-19T18:00:58.598Z,81.48
2018-03-19T18:08:52.317Z,80.30
2018-03-19T18:11:42.437Z,80.43
2018-03-19T18:17:11.677Z,80.57
2018-03-19T18:19:59.439Z,80.94
2018-03-19T18:25:16.913Z,81.10
2018-03-19T18:27:53.418Z,79.96
2018-03-19T18:30:27.695Z,80.15
2018-03-19T18:33:05.400Z,79.62
2018-03-19T18:35:39.485Z,79.81
2018-03-19T18:38:11.588Z,79.37
2018-03-19T18:40:46.583Z,78.92
2018-03-19T18:43:18.596Z,79.56
2018-03-19T18:49:00.673Z,79.75
2018-03-19T18:51:34.720Z,80.19
2018-03-19T18:54:07.394Z,79.14
2018-03-19T18:56:41.620Z,79.87
2018-03-19T18:59:12.557Z,80.91
2018-03-19T19:01:41.548Z,80.70
2018-03-19T19:04:12.492Z,80.77
2018-03-19T19:06:44.633Z,80.56
2018-03-19T19:09:15.264Z,80.66
2018-03-19T19:11:44.753Z,80.67
2018-03-19T19:14:15.687Z,81.49
2018-03-19T19:19:31.685Z,81.83
2018-03-19T19:22:03.637Z,82.13
2018-03-19T19:24:31.144Z,82.10
2018-03-19T19:26:58.703Z,82.19
2018-03-19T19:29:26.296Z,82.11
2018-03-19T19:31:54.066Z,82.83
2018-03-19T19:34:21.666Z,83.43
2018-03-19T19:36:49.515Z,83.23
2018-03-19T19:39:17.100Z,83.43
2018-03-19T19:41:44.664Z,83.71
2018-03-19T19:44:12.310Z,84.22
2018-03-19T19:46:39.823Z,84.27
2018-03-19T19:49:07.359Z,84.26
2018-03-19T19:51:34.846Z,83.97
2018-03-19T19:54:02.385Z,83.95
2018-03-19T19:56:29.884Z,84.30
2018-03-19T19:58:57.544Z,84.41
2018-03-19T20:01:25.041Z,84.78
2018-03-19T20:03:52.610Z,84.94
2018-03-19T20:06:20.121Z,84.17
2018-03-19T20:08:47.654Z,84.43
2018-03-19T20:11:15.146Z,84.65
2018-03-19T20:13:42.675Z,84.88
2018-03-19T20:16:10.171Z,85.42
2018-03-19T20:18:37.707Z,84.66
2018-03-19T20:21:05.223Z,80.31
2018-03-19T20:23:32.756Z,80.72
2018-03-19T20:26:00.287Z,80.84
2018-03-19T20:28:27.789Z,79.05
2018-03-19T20:30:55.335Z,79.60
2018-03-19T20:33:22.884Z,78.87
2018-03-19T20:35:50.476Z,78.58
2018-03-19T20:38:17.991Z,78.19
2018-03-19T20:40:45.512Z,78.73
2018-03-19T20:43:13.032Z,78.83
2018-03-19T20:45:40.624Z,78.17
2018-03-19T20:48:08.199Z,77.91
2018-03-19T20:50:35.753Z,75.68
2018-03-19T20:53:03.258Z,77.53
2018-03-19T20:55:30.828Z,76.06
2018-03-19T20:57:58.320Z,77.97
2018-03-19T21:00:25.842Z,79.29
2018-03-19T21:02:53.345Z,78.80
2018-03-19T21:05:20.898Z,75.81
2018-03-19T21:07:48.459Z,76.39
2018-03-19T21:10:16.080Z,77.82
2018-03-19T21:12:43.607Z,78.06
2018-03-19T21:15:11.127Z,77.78
2018-03-19T21:17:38.611Z,79.09
2018-03-19T21:20:06.146Z,78.59
2018-03-19T21:22:33.642Z,79.08
2018-03-19T21:25:01.175Z,79.05
2018-03-19T21:27:28.674Z,79.19
2018-03-19T21:29:56.199Z,78.69
2018-03-19T21:32:23.725Z,79.77
2018-03-19T21:34:51.247Z,79.96
2018-03-19T21:37:18.773Z,80.61
2018-03-19T21:39:46.308Z,79.85
2018-03-19T21:42:13.800Z,79.57
2018-03-19T21:44:41.368Z,79.54
2018-03-19T21:47:08.868Z,80.38
2018-03-19T21:49:36.400Z,80.32
2018-03-19T21:52:03.948Z,79.47
2018-03-19T21:54:31.440Z,79.31
2018-03-19T21:56:59.036Z,78.86
2018-03-19T21:59:26.536Z,79.47
2018-03-19T22:01:54.055Z,78.84
2018-03-19T22:04:21.548Z,79.62
2018-03-19T22:06:49.550Z,79.99
2018-03-19T22:09:17.067Z,77.95
2018-03-19T22:11:44.639Z,78.22
2018-03-19T22:14:12.132Z,78.22
2018-03-19T22:16:40.672Z,79.27
2018-03-19T22:19:08.179Z,79.25
2018-03-19T22:21:35.693Z,79.95
2018-03-19T22:24:03.200Z,79.47
2018-03-19T22:26:30.764Z,79.40
2018-03-19T22:28:58.259Z,78.94
2018-03-19T22:31:25.823Z,80.08
2018-03-19T22:33:53.357Z,79.67
2018-03-19T22:36:20.871Z,79.17
2018-03-19T22:38:48.408Z,80.17
2018-03-19T22:41:15.920Z,79.72
2018-03-19T22:43:43.421Z,80.41
2018-03-19T22:46:10.936Z,80.27
2018-03-19T22:48:38.432Z,80.06
2018-03-19T22:51:05.965Z,80.78
2018-03-19T22:53:33.546Z,80.44
2018-03-19T22:56:02.054Z,80.38
2018-03-19T22:58:29.561Z,80.26
2018-03-19T23:00:57.175Z,80.67
2018-03-19T23:03:24.667Z,81.31
2018-03-19T23:05:52.176Z,82.19
2018-03-19T23:08:19.670Z,82.30
2018-03-19T23:10:47.279Z,81.97
2018-03-19T23:13:14.777Z,82.19
2018-03-19T23:15:42.297Z,81.90
2018-03-19T23:18:09.798Z,82.29
2018-03-19T23:20:37.437Z,82.03
2018-03-19T23:23:04.971Z,82.22
2018-03-19T23:25:32.479Z,82.17
2018-03-19T23:27:59.963Z,81.92
2018-03-19T23:30:27.463Z,82.41
2018-03-19T23:32:54.971Z,82.59
2018-03-19T23:35:22.454Z,82.73
2018-03-19T23:37:49.976Z,82.27
2018-03-19T23:40:17.476Z,82.11
2018-03-19T23:42:44.997Z,82.31
2018-03-19T23:45:12.496Z,81.85
2018-03-19T23:47:40.006Z,82.40
2018-03-19T23:50:07.499Z,82.20
2018-03-19T23:52:35.085Z,81.03
2018-03-19T23:55:02.580Z,81.28
2018-03-19T23:57:30.096Z,82.32
2018-03-19T23:59:57.663Z,81.37
